sensor_id;sensor_type;location;lat;lon;timestamp;pressure;altitude;pressure_sealevel;temperature;humidity
60417;BME280;46263;44.726;10.396;2023-01-30T00:00:34;101250.72;;;5.65;57.60
60417;BME280;46263;44.726;10.396;2023-01-30T00:02:59;101250.22;;;5.66;57.31
60417;BME280;46263;44.726;10.396;2023-01-30T00:05:25;101246.84;;;5.71;57.15
60417;BME280;46263;44.726;10.396;2023-01-30T00:07:50;101248.06;;;5.70;57.13
60417;BME280;46263;44.726;10.396;2023-01-30T00:10:16;101251.91;;;5.73;57.14
60417;BME280;46263;44.726;10.396;2023-01-30T00:12:42;101242.84;;;5.72;56.98
60417;BME280;46263;44.726;10.396;2023-01-30T00:15:08;101244.09;;;5.62;56.93
60417;BME280;46263;44.726;10.396;2023-01-30T00:17:33;101236.75;;;5.50;56.63
60417;BME280;46263;44.726;10.396;2023-01-30T00:19:59;101230.59;;;5.47;56.92
60417;BME280;46263;44.726;10.396;2023-01-30T00:22:25;101230.50;;;5.32;57.08
60417;BME280;46263;44.726;10.396;2023-01-30T00:24:50;101232.16;;;5.39;57.27
60417;BME280;46263;44.726;10.396;2023-01-30T00:27:16;101225.41;;;5.40;57.45
60417;BME280;46263;44.726;10.396;2023-01-30T00:29:41;101229.06;;;5.46;56.87
60417;BME280;46263;44.726;10.396;2023-01-30T00:32:07;101218.16;;;5.42;56.89
60417;BME280;46263;44.726;10.396;2023-01-30T00:34:33;101215.22;;;5.46;57.13
60417;BME280;46263;44.726;10.396;2023-01-30T00:36:59;101215.84;;;5.41;56.89
60417;BME280;46263;44.726;10.396;2023-01-30T00:39:24;101218.47;;;5.35;56.65
60417;BME280;46263;44.726;10.396;2023-01-30T00:41:50;101209.41;;;5.26;57.31
60417;BME280;46263;44.726;10.396;2023-01-30T00:44:34;101210.38;;;5.14;57.58
60417;BME280;46263;44.726;10.396;2023-01-30T00:47:19;101213.00;;;4.99;57.74
60417;BME280;46263;44.726;10.396;2023-01-30T00:49:45;101211.31;;;5.02;57.88
60417;BME280;46263;44.726;10.396;2023-01-30T00:52:10;101205.94;;;4.98;58.12
60417;BME280;46263;44.726;10.396;2023-01-30T00:54:36;101207.16;;;5.06;57.48
60417;BME280;46263;44.726;10.396;2023-01-30T00:57:01;101205.19;;;4.98;57.41
60417;BME280;46263;44.726;10.396;2023-01-30T00:59:27;101189.16;;;5.02;57.32
60417;BME280;46263;44.726;10.396;2023-01-30T01:01:53;101190.38;;;5.10;57.64
60417;BME280;46263;44.726;10.396;2023-01-30T01:04:19;101192.84;;;5.08;57.10
60417;BME280;46263;44.726;10.396;2023-01-30T01:06:44;101193.78;;;5.05;57.34
60417;BME280;46263;44.726;10.396;2023-01-30T01:09:10;101191.00;;;5.05;57.42
60417;BME280;46263;44.726;10.396;2023-01-30T01:11:36;101188.25;;;5.05;57.38
60417;BME280;46263;44.726;10.396;2023-01-30T01:14:03;101182.06;;;5.01;57.61
60417;BME280;46263;44.726;10.396;2023-01-30T01:16:31;101183.63;;;5.02;57.59
60417;BME280;46263;44.726;10.396;2023-01-30T01:18:57;101175.78;;;5.00;57.49
60417;BME280;46263;44.726;10.396;2023-01-30T01:21:23;101177.63;;;5.03;57.30
60417;BME280;46263;44.726;10.396;2023-01-30T01:23:53;101179.03;;;4.99;57.32
60417;BME280;46263;44.726;10.396;2023-01-30T01:26:20;101177.47;;;4.98;57.34
60417;BME280;46263;44.726;10.396;2023-01-30T01:28:46;101182.69;;;5.05;56.90
60417;BME280;46263;44.726;10.396;2023-01-30T01:31:14;101183.59;;;5.11;57.41
60417;BME280;46263;44.726;10.396;2023-01-30T01:33:39;101181.78;;;5.08;57.19
60417;BME280;46263;44.726;10.396;2023-01-30T01:36:05;101182.38;;;5.12;57.20
60417;BME280;46263;44.726;10.396;2023-01-30T01:38:32;101183.91;;;5.13;57.13
60417;BME280;46263;44.726;10.396;2023-01-30T01:40:57;101172.06;;;5.12;56.89
60417;BME280;46263;44.726;10.396;2023-01-30T01:43:27;101172.25;;;5.09;57.41
60417;BME280;46263;44.726;10.396;2023-01-30T01:45:58;101171.28;;;5.12;56.64
60417;BME280;46263;44.726;10.396;2023-01-30T01:51:33;101167.91;;;5.17;57.02
60417;BME280;46263;44.726;10.396;2023-01-30T01:54:04;101168.53;;;5.03;57.14
60417;BME280;46263;44.726;10.396;2023-01-30T01:56:33;101165.16;;;5.08;57.31
60417;BME280;46263;44.726;10.396;2023-01-30T01:59:31;101170.38;;;5.15;57.37
60417;BME280;46263;44.726;10.396;2023-01-30T02:02:02;101162.50;;;5.13;57.22
60417;BME280;46263;44.726;10.396;2023-01-30T02:04:30;101160.03;;;5.15;56.70
60417;BME280;46263;44.726;10.396;2023-01-30T02:07:16;101152.78;;;5.18;56.74
60417;BME280;46263;44.726;10.396;2023-01-30T02:09:43;101154.34;;;5.19;56.80
60417;BME280;46263;44.726;10.396;2023-01-30T02:12:10;101149.59;;;5.19;56.60
60417;BME280;46263;44.726;10.396;2023-01-30T02:14:37;101157.13;;;5.10;56.72
60417;BME280;46263;44.726;10.396;2023-01-30T02:17:03;101147.72;;;5.16;56.43
60417;BME280;46263;44.726;10.396;2023-01-30T02:30:42;101140.09;;;5.02;56.18
60417;BME280;46263;44.726;10.396;2023-01-30T02:44:07;101107.63;;;5.03;56.26
60417;BME280;46263;44.726;10.396;2023-01-30T02:47:05;101109.31;;;5.00;56.42
60417;BME280;46263;44.726;10.396;2023-01-30T02:49:40;101105.31;;;5.01;56.28
60417;BME280;46263;44.726;10.396;2023-01-30T02:52:07;101103.31;;;5.02;56.49
60417;BME280;46263;44.726;10.396;2023-01-30T02:54:33;101095.94;;;4.99;56.83
60417;BME280;46263;44.726;10.396;2023-01-30T02:56:59;101103.63;;;5.04;56.25
60417;BME280;46263;44.726;10.396;2023-01-30T02:59:34;101101.47;;;5.08;56.03
60417;BME280;46263;44.726;10.396;2023-01-30T03:05:07;101095.66;;;4.97;55.98
60417;BME280;46263;44.726;10.396;2023-01-30T03:10:33;101090.00;;;4.73;56.68
60417;BME280;46263;44.726;10.396;2023-01-30T03:16:11;101081.13;;;4.70;56.74
60417;BME280;46263;44.726;10.396;2023-01-30T03:18:41;101068.97;;;4.67;56.82
60417;BME280;46263;44.726;10.396;2023-01-30T03:21:08;101066.66;;;4.66;56.44
60417;BME280;46263;44.726;10.396;2023-01-30T03:23:33;101057.91;;;4.67;56.47
60417;BME280;46263;44.726;10.396;2023-01-30T03:26:01;101069.91;;;4.64;56.75
60417;BME280;46263;44.726;10.396;2023-01-30T03:28:28;101074.38;;;4.62;56.39
60417;BME280;46263;44.726;10.396;2023-01-30T03:30:54;101067.75;;;4.68;56.62
60417;BME280;46263;44.726;10.396;2023-01-30T03:33:19;101071.88;;;4.72;55.93
60417;BME280;46263;44.726;10.396;2023-01-30T03:35:45;101068.47;;;4.77;55.85
60417;BME280;46263;44.726;10.396;2023-01-30T03:38:11;101069.41;;;4.74;56.14
60417;BME280;46263;44.726;10.396;2023-01-30T03:40:36;101069.09;;;4.72;56.59
60417;BME280;46263;44.726;10.396;2023-01-30T03:43:02;101070.97;;;4.67;56.18
60417;BME280;46263;44.726;10.396;2023-01-30T03:45:27;101062.53;;;4.61;57.14
60417;BME280;46263;44.726;10.396;2023-01-30T03:47:53;101060.69;;;4.67;56.84
60417;BME280;46263;44.726;10.396;2023-01-30T03:50:18;101049.00;;;4.63;56.70
60417;BME280;46263;44.726;10.396;2023-01-30T03:52:44;101059.75;;;4.61;56.87
60417;BME280;46263;44.726;10.396;2023-01-30T03:55:10;101049.16;;;4.60;57.03
60417;BME280;46263;44.726;10.396;2023-01-30T03:57:35;101045.97;;;4.52;57.15
60417;BME280;46263;44.726;10.396;2023-01-30T04:00:02;101047.97;;;4.43;57.07
60417;BME280;46263;44.726;10.396;2023-01-30T04:02:29;101046.59;;;4.38;57.26
60417;BME280;46263;44.726;10.396;2023-01-30T04:04:54;101042.91;;;4.41;57.14
60417;BME280;46263;44.726;10.396;2023-01-30T04:07:20;101050.56;;;4.46;56.97
60417;BME280;46263;44.726;10.396;2023-01-30T04:09:46;101037.66;;;4.52;57.31
60417;BME280;46263;44.726;10.396;2023-01-30T04:12:12;101031.19;;;4.55;57.30
60417;BME280;46263;44.726;10.396;2023-01-30T04:14:37;101028.41;;;4.55;56.84
60417;BME280;46263;44.726;10.396;2023-01-30T04:17:03;101028.09;;;4.53;57.54
60417;BME280;46263;44.726;10.396;2023-01-30T04:19:28;101028.75;;;4.48;56.89
60417;BME280;46263;44.726;10.396;2023-01-30T04:21:54;101025.50;;;4.50;57.50
60417;BME280;46263;44.726;10.396;2023-01-30T04:24:19;101020.13;;;4.46;56.76
60417;BME280;46263;44.726;10.396;2023-01-30T04:26:45;101023.88;;;4.34;57.48
60417;BME280;46263;44.726;10.396;2023-01-30T04:29:10;101020.94;;;4.38;57.14
60417;BME280;46263;44.726;10.396;2023-01-30T04:31:36;101014.94;;;4.30;57.38
60417;BME280;46263;44.726;10.396;2023-01-30T04:34:01;101017.13;;;4.26;57.55
60417;BME280;46263;44.726;10.396;2023-01-30T04:36:27;101018.66;;;4.27;57.66
60417;BME280;46263;44.726;10.396;2023-01-30T04:38:55;101018.34;;;4.34;57.54
60417;BME280;46263;44.726;10.396;2023-01-30T04:41:22;101022.16;;;4.37;57.19
60417;BME280;46263;44.726;10.396;2023-01-30T04:43:48;101018.34;;;4.34;57.27
60417;BME280;46263;44.726;10.396;2023-01-30T04:46:13;101012.19;;;4.30;57.16
60417;BME280;46263;44.726;10.396;2023-01-30T04:48:39;100999.31;;;4.27;57.53
60417;BME280;46263;44.726;10.396;2023-01-30T04:51:04;101003.94;;;4.03;58.35
60417;BME280;46263;44.726;10.396;2023-01-30T04:53:30;100993.16;;;4.05;58.12
60417;BME280;46263;44.726;10.396;2023-01-30T04:55:55;100987.19;;;4.07;58.21
60417;BME280;46263;44.726;10.396;2023-01-30T04:58:21;100978.75;;;4.10;58.05
60417;BME280;46263;44.726;10.396;2023-01-30T05:00:48;100966.47;;;4.11;57.95
60417;BME280;46263;44.726;10.396;2023-01-30T05:03:14;100962.31;;;4.16;58.17
60417;BME280;46263;44.726;10.396;2023-01-30T05:05:40;100960.59;;;4.18;57.94
60417;BME280;46263;44.726;10.396;2023-01-30T05:08:06;100952.88;;;4.22;57.63
60417;BME280;46263;44.726;10.396;2023-01-30T05:10:32;100950.44;;;4.24;57.36
60417;BME280;46263;44.726;10.396;2023-01-30T05:13:04;100942.13;;;4.24;57.58
60417;BME280;46263;44.726;10.396;2023-01-30T05:15:31;100940.59;;;4.23;57.26
60417;BME280;46263;44.726;10.396;2023-01-30T05:17:57;100945.22;;;4.26;57.08
60417;BME280;46263;44.726;10.396;2023-01-30T05:20:22;100952.88;;;4.31;57.42
60417;BME280;46263;44.726;10.396;2023-01-30T05:22:48;100946.13;;;4.23;57.42
60417;BME280;46263;44.726;10.396;2023-01-30T05:25:14;100944.25;;;4.29;57.36
60417;BME280;46263;44.726;10.396;2023-01-30T05:27:39;100947.50;;;4.28;57.05
60417;BME280;46263;44.726;10.396;2023-01-30T05:30:05;100948.56;;;4.30;57.15
60417;BME280;46263;44.726;10.396;2023-01-30T05:32:31;100946.88;;;4.33;57.47
60417;BME280;46263;44.726;10.396;2023-01-30T05:34:56;100950.56;;;4.30;57.34
60417;BME280;46263;44.726;10.396;2023-01-30T05:37:22;100948.88;;;4.32;57.72
60417;BME280;46263;44.726;10.396;2023-01-30T05:39:48;100953.00;;;4.37;57.43
60417;BME280;46263;44.726;10.396;2023-01-30T05:42:14;100959.75;;;4.45;57.12
60417;BME280;46263;44.726;10.396;2023-01-30T05:44:40;100964.47;;;4.53;57.02
60417;BME280;46263;44.726;10.396;2023-01-30T05:47:05;100967.22;;;4.53;56.94
60417;BME280;46263;44.726;10.396;2023-01-30T05:49:31;100972.47;;;4.60;56.52
60417;BME280;46263;44.726;10.396;2023-01-30T05:51:57;100987.78;;;4.61;56.91
60417;BME280;46263;44.726;10.396;2023-01-30T05:54:22;100993.63;;;4.63;57.14
60417;BME280;46263;44.726;10.396;2023-01-30T05:56:48;100988.09;;;4.63;57.09
60417;BME280;46263;44.726;10.396;2023-01-30T05:59:14;100988.59;;;4.62;56.87
60417;BME280;46263;44.726;10.396;2023-01-30T06:01:40;100994.72;;;4.57;56.85
60417;BME280;46263;44.726;10.396;2023-01-30T06:04:06;101001.56;;;4.47;57.20
60417;BME280;46263;44.726;10.396;2023-01-30T06:06:32;101019.88;;;4.35;57.18
60417;BME280;46263;44.726;10.396;2023-01-30T06:08:57;101021.88;;;4.26;57.07
60417;BME280;46263;44.726;10.396;2023-01-30T06:11:23;101024.66;;;4.08;57.39
60417;BME280;46263;44.726;10.396;2023-01-30T06:13:49;101026.97;;;4.00;57.15
60417;BME280;46263;44.726;10.396;2023-01-30T06:16:16;101036.34;;;3.94;57.86
60417;BME280;46263;44.726;10.396;2023-01-30T06:18:42;101030.38;;;3.95;57.75
60417;BME280;46263;44.726;10.396;2023-01-30T06:21:09;101028.97;;;4.09;57.71
60417;BME280;46263;44.726;10.396;2023-01-30T06:23:35;101032.66;;;4.15;57.77
60417;BME280;46263;44.726;10.396;2023-01-30T06:26:00;101033.41;;;4.15;57.64
60417;BME280;46263;44.726;10.396;2023-01-30T06:28:26;101044.47;;;4.24;57.68
60417;BME280;46263;44.726;10.396;2023-01-30T06:30:52;101044.31;;;4.19;57.43
60417;BME280;46263;44.726;10.396;2023-01-30T06:33:18;101045.69;;;4.23;57.82
60417;BME280;46263;44.726;10.396;2023-01-30T06:35:47;101042.47;;;4.25;57.64
60417;BME280;46263;44.726;10.396;2023-01-30T06:38:13;101051.53;;;4.25;57.57
60417;BME280;46263;44.726;10.396;2023-01-30T06:40:39;101054.28;;;4.34;57.94
60417;BME280;46263;44.726;10.396;2023-01-30T06:43:05;101056.44;;;4.39;57.72
60417;BME280;46263;44.726;10.396;2023-01-30T06:45:31;101050.88;;;4.39;57.45
60417;BME280;46263;44.726;10.396;2023-01-30T06:47:57;101054.56;;;4.45;57.57
60417;BME280;46263;44.726;10.396;2023-01-30T06:50:25;101051.34;;;4.47;57.69
60417;BME280;46263;44.726;10.396;2023-01-30T06:52:51;101044.13;;;4.49;57.38
60417;BME280;46263;44.726;10.396;2023-01-30T06:55:20;101050.56;;;4.55;57.10
60417;BME280;46263;44.726;10.396;2023-01-30T06:57:46;101050.84;;;4.57;57.47
60417;BME280;46263;44.726;10.396;2023-01-30T07:00:14;101039.16;;;4.53;57.16
60417;BME280;46263;44.726;10.396;2023-01-30T07:02:40;101027.50;;;4.58;56.65
60417;BME280;46263;44.726;10.396;2023-01-30T07:05:07;101049.31;;;4.56;57.26
60417;BME280;46263;44.726;10.396;2023-01-30T07:07:34;101044.59;;;4.48;57.26
60417;BME280;46263;44.726;10.396;2023-01-30T07:10:01;101029.81;;;4.51;57.13
60417;BME280;46263;44.726;10.396;2023-01-30T07:12:27;101023.78;;;4.61;56.60
60417;BME280;46263;44.726;10.396;2023-01-30T07:14:53;101027.50;;;4.49;56.62
60417;BME280;46263;44.726;10.396;2023-01-30T07:17:20;101030.59;;;4.42;56.88
60417;BME280;46263;44.726;10.396;2023-01-30T07:19:46;101012.63;;;4.38;57.11
60417;BME280;46263;44.726;10.396;2023-01-30T07:22:12;101010.31;;;4.36;56.73
60417;BME280;46263;44.726;10.396;2023-01-30T07:24:38;100999.25;;;4.36;57.42
60417;BME280;46263;44.726;10.396;2023-01-30T07:27:11;100992.78;;;4.39;57.40
60417;BME280;46263;44.726;10.396;2023-01-30T07:29:38;101000.91;;;4.52;56.91
60417;BME280;46263;44.726;10.396;2023-01-30T07:32:05;101004.88;;;4.60;56.39
60417;BME280;46263;44.726;10.396;2023-01-30T07:34:31;101018.13;;;4.56;57.00
60417;BME280;46263;44.726;10.396;2023-01-30T07:36:56;101018.84;;;4.65;56.92
60417;BME280;46263;44.726;10.396;2023-01-30T07:39:23;101014.81;;;4.75;56.70
60417;BME280;46263;44.726;10.396;2023-01-30T07:41:48;101011.56;;;4.85;56.81
60417;BME280;46263;44.726;10.396;2023-01-30T07:44:14;101009.53;;;4.86;57.31
60417;BME280;46263;44.726;10.396;2023-01-30T07:46:39;101003.66;;;4.93;56.80
60417;BME280;46263;44.726;10.396;2023-01-30T07:49:06;101001.63;;;5.02;57.15
60417;BME280;46263;44.726;10.396;2023-01-30T07:51:32;101009.59;;;5.09;57.37
60417;BME280;46263;44.726;10.396;2023-01-30T07:53:58;101007.88;;;5.12;56.86
60417;BME280;46263;44.726;10.396;2023-01-30T07:56:25;100990.97;;;5.10;56.79
60417;BME280;46263;44.726;10.396;2023-01-30T07:58:52;100984.13;;;5.20;57.30
60417;BME280;46263;44.726;10.396;2023-01-30T08:01:18;100967.81;;;5.22;57.13
60417;BME280;46263;44.726;10.396;2023-01-30T08:03:44;100973.13;;;5.34;57.58
60417;BME280;46263;44.726;10.396;2023-01-30T08:06:11;100980.31;;;5.41;56.91
60417;BME280;46263;44.726;10.396;2023-01-30T08:08:38;100981.56;;;5.40;56.59
60417;BME280;46263;44.726;10.396;2023-01-30T08:11:04;100970.50;;;5.54;57.03
60417;BME280;46263;44.726;10.396;2023-01-30T08:13:30;100962.88;;;5.63;56.95
60417;BME280;46263;44.726;10.396;2023-01-30T08:16:03;100971.13;;;5.72;57.24
60417;BME280;46263;44.726;10.396;2023-01-30T08:18:33;100962.09;;;5.86;57.06
60417;BME280;46263;44.726;10.396;2023-01-30T08:21:01;100970.63;;;5.97;57.48
60417;BME280;46263;44.726;10.396;2023-01-30T08:23:28;100967.09;;;6.11;57.15
60417;BME280;46263;44.726;10.396;2023-01-30T08:26:02;100968.53;;;6.21;57.09
60417;BME280;46263;44.726;10.396;2023-01-30T08:28:28;100962.50;;;6.23;56.11
60417;BME280;46263;44.726;10.396;2023-01-30T08:30:55;100958.19;;;6.36;56.21
60417;BME280;46263;44.726;10.396;2023-01-30T08:33:21;100959.16;;;6.47;55.62
60417;BME280;46263;44.726;10.396;2023-01-30T08:35:47;100948.97;;;6.59;55.81
60417;BME280;46263;44.726;10.396;2023-01-30T08:38:13;100931.22;;;6.71;56.37
60417;BME280;46263;44.726;10.396;2023-01-30T08:40:39;100938.97;;;6.81;56.61
60417;BME280;46263;44.726;10.396;2023-01-30T08:43:04;100939.94;;;6.78;56.36
60417;BME280;46263;44.726;10.396;2023-01-30T08:45:30;100937.91;;;6.79;55.57
60417;BME280;46263;44.726;10.396;2023-01-30T08:48:00;100943.00;;;6.80;56.34
60417;BME280;46263;44.726;10.396;2023-01-30T08:50:26;100935.53;;;6.72;56.19
60417;BME280;46263;44.726;10.396;2023-01-30T08:52:52;100925.75;;;6.76;56.81
60417;BME280;46263;44.726;10.396;2023-01-30T08:55:17;100918.75;;;6.81;56.75
60417;BME280;46263;44.726;10.396;2023-01-30T08:57:43;100908.47;;;6.87;57.38
60417;BME280;46263;44.726;10.396;2023-01-30T09:00:09;100898.69;;;6.91;57.68
60417;BME280;46263;44.726;10.396;2023-01-30T09:02:35;100893.00;;;7.00;57.29
60417;BME280;46263;44.726;10.396;2023-01-30T09:05:01;100883.78;;;7.09;57.28
60417;BME280;46263;44.726;10.396;2023-01-30T09:07:27;100876.13;;;7.23;56.96
60417;BME280;46263;44.726;10.396;2023-01-30T09:09:53;100875.00;;;7.35;57.80
60417;BME280;46263;44.726;10.396;2023-01-30T09:12:19;100871.59;;;7.46;57.80
60417;BME280;46263;44.726;10.396;2023-01-30T09:14:45;100884.56;;;7.54;56.69
60417;BME280;46263;44.726;10.396;2023-01-30T09:17:11;100881.41;;;7.67;56.36
60417;BME280;46263;44.726;10.396;2023-01-30T09:19:37;100882.00;;;7.76;56.17
60417;BME280;46263;44.726;10.396;2023-01-30T09:22:03;100885.63;;;7.82;56.68
60417;BME280;46263;44.726;10.396;2023-01-30T09:24:29;100878.09;;;7.88;56.66
60417;BME280;46263;44.726;10.396;2023-01-30T09:26:55;100896.31;;;7.89;55.76
60417;BME280;46263;44.726;10.396;2023-01-30T09:29:24;100905.13;;;7.88;55.33
60417;BME280;46263;44.726;10.396;2023-01-30T09:31:49;100903.34;;;7.85;54.54
60417;BME280;46263;44.726;10.396;2023-01-30T09:34:15;100892.53;;;7.92;54.51
60417;BME280;46263;44.726;10.396;2023-01-30T09:36:41;100894.63;;;7.97;54.89
60417;BME280;46263;44.726;10.396;2023-01-30T09:39:06;100891.84;;;7.97;54.76
60417;BME280;46263;44.726;10.396;2023-01-30T09:44:08;100871.34;;;8.00;54.71
60417;BME280;46263;44.726;10.396;2023-01-30T09:54:39;100885.38;;;8.11;57.43
60417;BME280;46263;44.726;10.396;2023-01-30T09:59:53;100895.63;;;8.25;57.33
60417;BME280;46263;44.726;10.396;2023-01-30T10:04:54;100884.28;;;8.28;58.09
60417;BME280;46263;44.726;10.396;2023-01-30T10:07:28;100888.13;;;8.36;57.80
60417;BME280;46263;44.726;10.396;2023-01-30T10:10:11;100883.63;;;8.44;57.92
60417;BME280;46263;44.726;10.396;2023-01-30T10:18:26;100872.22;;;8.37;56.78
60417;BME280;46263;44.726;10.396;2023-01-30T10:26:14;100867.78;;;8.56;55.89
60417;BME280;46263;44.726;10.396;2023-01-30T10:31:15;100866.25;;;8.55;56.17
60417;BME280;46263;44.726;10.396;2023-01-30T10:34:05;100871.59;;;8.58;55.90
60417;BME280;46263;44.726;10.396;2023-01-30T10:36:45;100865.03;;;8.61;55.12
60417;BME280;46263;44.726;10.396;2023-01-30T10:42:15;100860.97;;;8.62;55.69
60417;BME280;46263;44.726;10.396;2023-01-30T10:44:45;100847.56;;;8.61;54.63
60417;BME280;46263;44.726;10.396;2023-01-30T10:49:51;100820.81;;;8.79;54.59
60417;BME280;46263;44.726;10.396;2023-01-30T10:55:46;100824.91;;;8.89;52.48
60417;BME280;46263;44.726;10.396;2023-01-30T11:01:04;100830.22;;;8.93;49.67
60417;BME280;46263;44.726;10.396;2023-01-30T11:03:45;100819.88;;;8.93;49.15
60417;BME280;46263;44.726;10.396;2023-01-30T11:06:21;100818.06;;;8.90;48.67
60417;BME280;46263;44.726;10.396;2023-01-30T11:08:52;100811.00;;;8.95;48.17
60417;BME280;46263;44.726;10.396;2023-01-30T11:16:27;100754.25;;;8.98;46.87
60417;BME280;46263;44.726;10.396;2023-01-30T11:18:53;100739.31;;;8.95;46.96
60417;BME280;46263;44.726;10.396;2023-01-30T11:21:28;100738.28;;;8.98;47.68
60417;BME280;46263;44.726;10.396;2023-01-30T11:23:55;100735.75;;;9.00;48.02
60417;BME280;46263;44.726;10.396;2023-01-30T11:26:34;100737.03;;;9.05;48.41
60417;BME280;46263;44.726;10.396;2023-01-30T11:29:28;100737.53;;;9.09;47.99
60417;BME280;46263;44.726;10.396;2023-01-30T11:31:54;100728.47;;;9.30;47.86
60417;BME280;46263;44.726;10.396;2023-01-30T11:34:22;100720.59;;;9.45;48.20
60417;BME280;46263;44.726;10.396;2023-01-30T11:36:49;100742.44;;;9.52;47.46
60417;BME280;46263;44.726;10.396;2023-01-30T11:41:43;100747.00;;;9.77;47.50
60417;BME280;46263;44.726;10.396;2023-01-30T11:44:28;100755.09;;;9.86;47.44
60417;BME280;46263;44.726;10.396;2023-01-30T11:46:58;100744.72;;;9.92;46.58
60417;BME280;46263;44.726;10.396;2023-01-30T11:49:30;100726.19;;;9.89;46.90
60417;BME280;46263;44.726;10.396;2023-01-30T11:51:58;100719.34;;;9.95;46.45
60417;BME280;46263;44.726;10.396;2023-01-30T11:54:32;100705.63;;;9.86;45.52
60417;BME280;46263;44.726;10.396;2023-01-30T11:57:01;100683.53;;;9.94;46.08
60417;BME280;46263;44.726;10.396;2023-01-30T11:59:33;100670.88;;;9.98;45.42
60417;BME280;46263;44.726;10.396;2023-01-30T12:02:25;100657.63;;;10.10;45.03
60417;BME280;46263;44.726;10.396;2023-01-30T12:05:03;100657.13;;;10.11;44.61
60417;BME280;46263;44.726;10.396;2023-01-30T12:07:32;100657.13;;;10.17;47.06
60417;BME280;46263;44.726;10.396;2023-01-30T12:09:58;100644.91;;;10.20;45.24
60417;BME280;46263;44.726;10.396;2023-01-30T12:12:25;100621.25;;;10.32;44.79
60417;BME280;46263;44.726;10.396;2023-01-30T12:14:52;100606.19;;;10.45;50.67
60417;BME280;46263;44.726;10.396;2023-01-30T12:23:04;100610.50;;;10.46;44.86
60417;BME280;46263;44.726;10.396;2023-01-30T12:25:47;100611.22;;;10.52;46.49
60417;BME280;46263;44.726;10.396;2023-01-30T12:28:29;100600.06;;;10.52;45.11
60417;BME280;46263;44.726;10.396;2023-01-30T12:31:02;100602.28;;;10.65;45.37
60417;BME280;46263;44.726;10.396;2023-01-30T12:33:32;100610.63;;;10.70;45.02
60417;BME280;46263;44.726;10.396;2023-01-30T12:36:15;100604.47;;;10.77;44.75
60417;BME280;46263;44.726;10.396;2023-01-30T13:01:15;100563.25;;;10.83;44.82
60417;BME280;46263;44.726;10.396;2023-01-30T13:10:31;100550.34;;;10.80;44.84
60417;BME280;46263;44.726;10.396;2023-01-30T13:16:09;100555.59;;;10.89;44.94
60417;BME280;46263;44.726;10.396;2023-01-30T13:18:54;100550.28;;;10.86;45.29
60417;BME280;46263;44.726;10.396;2023-01-30T13:21:45;100540.78;;;11.00;45.73
60417;BME280;46263;44.726;10.396;2023-01-30T13:24:38;100505.00;;;10.93;45.08
60417;BME280;46263;44.726;10.396;2023-01-30T13:27:14;100495.53;;;10.96;45.04
60417;BME280;46263;44.726;10.396;2023-01-30T13:29:41;100489.66;;;10.99;45.17
60417;BME280;46263;44.726;10.396;2023-01-30T13:34:46;100464.19;;;11.03;44.73
60417;BME280;46263;44.726;10.396;2023-01-30T13:37:18;100447.91;;;11.07;45.81
60417;BME280;46263;44.726;10.396;2023-01-30T13:40:12;100454.09;;;11.00;45.90
60417;BME280;46263;44.726;10.396;2023-01-30T13:45:33;100468.69;;;10.87;45.82
60417;BME280;46263;44.726;10.396;2023-01-30T13:59:24;100471.69;;;10.65;46.61
60417;BME280;46263;44.726;10.396;2023-01-30T14:09:45;100452.88;;;10.66;47.34
60417;BME280;46263;44.726;10.396;2023-01-30T14:12:22;100447.66;;;10.51;47.26
60417;BME280;46263;44.726;10.396;2023-01-30T14:20:44;100436.19;;;10.55;47.84
60417;BME280;46263;44.726;10.396;2023-01-30T14:23:31;100434.69;;;10.54;47.84
60417;BME280;46263;44.726;10.396;2023-01-30T14:25:57;100439.22;;;10.57;47.76
60417;BME280;46263;44.726;10.396;2023-01-30T14:38:20;100412.50;;;10.61;47.74
60417;BME280;46263;44.726;10.396;2023-01-30T14:48:49;100410.72;;;10.64;48.80
60417;BME280;46263;44.726;10.396;2023-01-30T14:51:28;100407.13;;;10.69;48.51
60417;BME280;46263;44.726;10.396;2023-01-30T14:53:59;100404.66;;;10.60;47.46
60417;BME280;46263;44.726;10.396;2023-01-30T14:59:07;100393.94;;;10.64;48.39
60417;BME280;46263;44.726;10.396;2023-01-30T15:04:21;100400.31;;;10.64;48.41
60417;BME280;46263;44.726;10.396;2023-01-30T15:06:48;100396.22;;;10.65;48.56
60417;BME280;46263;44.726;10.396;2023-01-30T15:09:18;100393.66;;;10.67;49.10
60417;BME280;46263;44.726;10.396;2023-01-30T15:11:52;100396.44;;;10.67;49.75
60417;BME280;46263;44.726;10.396;2023-01-30T15:14:41;100387.84;;;10.65;49.79
60417;BME280;46263;44.726;10.396;2023-01-30T15:22:44;100379.91;;;10.69;49.66
60417;BME280;46263;44.726;10.396;2023-01-30T15:33:20;100386.53;;;10.66;49.52
60417;BME280;46263;44.726;10.396;2023-01-30T15:35:46;100386.53;;;10.66;49.73
60417;BME280;46263;44.726;10.396;2023-01-30T15:40:46;100400.59;;;10.61;50.62
60417;BME280;46263;44.726;10.396;2023-01-30T15:46:32;100398.84;;;10.58;50.35
60417;BME280;46263;44.726;10.396;2023-01-30T15:49:32;100378.03;;;10.53;49.60
60417;BME280;46263;44.726;10.396;2023-01-30T15:51:51;100399.94;;;10.49;50.49
60417;BME280;46263;44.726;10.396;2023-01-30T15:54:18;100404.72;;;10.54;49.99
60417;BME280;46263;44.726;10.396;2023-01-30T15:56:47;100401.69;;;10.52;49.47
60417;BME280;46263;44.726;10.396;2023-01-30T15:59:33;100408.09;;;10.47;50.50
60417;BME280;46263;44.726;10.396;2023-01-30T16:02:05;100408.38;;;10.44;49.96
60417;BME280;46263;44.726;10.396;2023-01-30T16:04:31;100410.16;;;10.41;49.80
60417;BME280;46263;44.726;10.396;2023-01-30T16:06:56;100406.13;;;10.37;49.83
60417;BME280;46263;44.726;10.396;2023-01-30T16:09:24;100404.09;;;10.37;50.51